JBU1539 KMVY-KJFK
Flight info
| Callsign | JBU1539 |
|---|---|
| Flight time | N/A |
| Altitude | 22000 |
| Route | BUZRD SEY PARCH4 |
| Aircraft | A21N/M-SDE2E3FGHIRWXY/LB1 |
Departure
| Time | 2026-04-20 12:34 |
|---|---|
| Airport | Martha's Vineyard Airport (KMVY) |
Arrival
| Time | N/A |
|---|---|
| Airport | John F. Kennedy International Airport (KJFK) |
| Time | Latitude | Longitude | Altitude | Speed | Heading |
|---|---|---|---|---|---|
| 2026-04-20 12:30 | 41.39433 | -70.60747 | 60 ft | 0 kts | 221° |
| 2026-04-20 12:33 | 41.39429 | -70.60752 | 60 ft | 1 kts | 224° |
| 2026-04-20 12:33 | 41.39420 | -70.60771 | 60 ft | 5 kts | 255° |
| 2026-04-20 12:33 | 41.39440 | -70.60855 | 61 ft | 10 kts | 298° |
| 2026-04-20 12:34 | 41.39463 | -70.60910 | 62 ft | 4 kts | 300° |
| 2026-04-20 12:34 | 41.39440 | -70.61046 | 61 ft | 37 kts | 222° |
| 2026-04-20 12:34 | 41.39025 | -70.61520 | 58 ft | 112 kts | 222° |
| 2026-04-20 12:34 | 41.38446 | -70.62154 | 698 ft | 97 kts | 218° |
| 2026-04-20 12:35 | 41.38078 | -70.62774 | 1319 ft | 98 kts | 254° |
| 2026-04-20 12:35 | 41.37986 | -70.63897 | 966 ft | 148 kts | 268° |
| 2026-04-20 12:35 | 41.37915 | -70.65291 | 860 ft | 151 kts | 263° |
| 2026-04-20 12:35 | 41.37740 | -70.66635 | 833 ft | 143 kts | 258° |
| 2026-04-20 12:36 | 41.37505 | -70.67880 | 830 ft | 133 kts | 255° |
| 2026-04-20 12:36 | 41.37249 | -70.69022 | 831 ft | 126 kts | 253° |
| 2026-04-20 12:36 | 41.36981 | -70.70120 | 836 ft | 122 kts | 252° |
| 2026-04-20 12:36 | 41.36717 | -70.71162 | 838 ft | 118 kts | 252° |
| 2026-04-20 12:37 | 41.36450 | -70.72195 | 834 ft | 116 kts | 251° |
| 2026-04-20 12:37 | 41.36187 | -70.73209 | 840 ft | 114 kts | 251° |
| 2026-04-20 12:37 | 41.35928 | -70.74192 | 841 ft | 112 kts | 251° |
| 2026-04-20 12:37 | 41.35677 | -70.75153 | 841 ft | 110 kts | 251° |
| 2026-04-20 12:38 | 41.35426 | -70.76115 | 844 ft | 109 kts | 251° |
| 2026-04-20 12:38 | 41.35175 | -70.77068 | 842 ft | 108 kts | 251° |
| 2026-04-20 12:38 | 41.34929 | -70.78003 | 843 ft | 108 kts | 251° |
| 2026-04-20 12:38 | 41.34678 | -70.78955 | 842 ft | 107 kts | 252° |
| 2026-04-20 12:39 | 41.34187 | -70.80816 | 842 ft | 106 kts | 252° |
| 2026-04-20 12:39 | 41.33944 | -70.81737 | 843 ft | 106 kts | 252° |
| 2026-04-20 12:39 | 41.33697 | -70.82674 | 842 ft | 106 kts | 252° |
| 2026-04-20 12:40 | 41.33452 | -70.83599 | 843 ft | 106 kts | 251° |
| 2026-04-20 12:40 | 41.33208 | -70.84521 | 844 ft | 105 kts | 252° |
| 2026-04-20 12:40 | 41.32967 | -70.85432 | 844 ft | 105 kts | 251° |
| 2026-04-20 12:40 | 41.32722 | -70.86356 | 842 ft | 105 kts | 251° |
| 2026-04-20 12:41 | 41.32477 | -70.87284 | 843 ft | 105 kts | 251° |
| 2026-04-20 12:41 | 41.32236 | -70.88195 | 841 ft | 105 kts | 252° |
| 2026-04-20 12:41 | 41.31992 | -70.89112 | 842 ft | 105 kts | 252° |
| 2026-04-20 12:41 | 41.31749 | -70.90032 | 841 ft | 105 kts | 252° |
| 2026-04-20 12:42 | 41.31503 | -70.90955 | 841 ft | 105 kts | 252° |
| 2026-04-20 12:42 | 41.31263 | -70.91863 | 843 ft | 104 kts | 252° |
| 2026-04-20 12:42 | 41.31019 | -70.92783 | 842 ft | 104 kts | 252° |
| 2026-04-20 12:42 | 41.30779 | -70.93684 | 842 ft | 104 kts | 252° |
| 2026-04-20 12:43 | 41.30538 | -70.94593 | 843 ft | 104 kts | 252° |
| 2026-04-20 12:43 | 41.30297 | -70.95503 | 843 ft | 104 kts | 252° |
| 2026-04-20 12:43 | 41.30056 | -70.96407 | 839 ft | 104 kts | 252° |
| 2026-04-20 12:43 | 41.29813 | -70.97318 | 840 ft | 104 kts | 252° |
| 2026-04-20 12:44 | 41.29576 | -70.98212 | 841 ft | 103 kts | 252° |
| 2026-04-20 12:44 | 41.29340 | -70.99099 | 840 ft | 103 kts | 252° |
| 2026-04-20 12:44 | 41.29100 | -71.00002 | 840 ft | 103 kts | 252° |
| 2026-04-20 12:44 | 41.28857 | -71.00916 | 844 ft | 103 kts | 252° |
| 2026-04-20 12:45 | 41.28618 | -71.01812 | 844 ft | 103 kts | 252° |
| 2026-04-20 12:45 | 41.28375 | -71.02725 | 844 ft | 104 kts | 252° |
| 2026-04-20 12:45 | 41.28135 | -71.03623 | 841 ft | 104 kts | 252° |
| 2026-04-20 12:45 | 41.27891 | -71.04538 | 843 ft | 104 kts | 252° |
| 2026-04-20 12:46 | 41.27649 | -71.05444 | 843 ft | 104 kts | 253° |
| 2026-04-20 12:46 | 41.27405 | -71.06360 | 841 ft | 104 kts | 252° |
| 2026-04-20 12:46 | 41.27164 | -71.07261 | 840 ft | 104 kts | 252° |
| 2026-04-20 12:46 | 41.26919 | -71.08176 | 840 ft | 104 kts | 252° |
| 2026-04-20 12:47 | 41.26678 | -71.09080 | 840 ft | 104 kts | 252° |
| 2026-04-20 12:47 | 41.26437 | -71.09982 | 840 ft | 103 kts | 252° |
| 2026-04-20 12:47 | 41.26195 | -71.10886 | 839 ft | 103 kts | 252° |
| 2026-04-20 12:47 | 41.25954 | -71.11785 | 839 ft | 102 kts | 253° |
| 2026-04-20 12:48 | 41.25716 | -71.12677 | 840 ft | 102 kts | 252° |
| 2026-04-20 12:48 | 41.25478 | -71.13568 | 840 ft | 102 kts | 252° |
| 2026-04-20 12:48 | 41.25237 | -71.14470 | 840 ft | 103 kts | 252° |
| 2026-04-20 12:48 | 41.24998 | -71.15362 | 842 ft | 103 kts | 253° |
| 2026-04-20 12:49 | 41.24755 | -71.16270 | 842 ft | 103 kts | 253° |
| 2026-04-20 12:49 | 41.24515 | -71.17165 | 841 ft | 103 kts | 253° |
| 2026-04-20 12:49 | 41.24272 | -71.18070 | 841 ft | 104 kts | 252° |
| 2026-04-20 12:49 | 41.24031 | -71.18969 | 842 ft | 104 kts | 253° |
| 2026-04-20 12:50 | 41.23787 | -71.19875 | 839 ft | 103 kts | 252° |
| 2026-04-20 12:50 | 41.23545 | -71.20776 | 843 ft | 103 kts | 253° |
| 2026-04-20 12:50 | 41.23305 | -71.21671 | 841 ft | 103 kts | 252° |
| 2026-04-20 12:50 | 41.23063 | -71.22567 | 839 ft | 103 kts | 253° |
| 2026-04-20 12:51 | 41.22822 | -71.23470 | 837 ft | 103 kts | 253° |
| 2026-04-20 12:51 | 41.22578 | -71.24377 | 838 ft | 103 kts | 253° |
| 2026-04-20 12:51 | 41.22333 | -71.25264 | 837 ft | 103 kts | 252° |
| 2026-04-20 12:51 | 41.22081 | -71.26174 | 838 ft | 104 kts | 252° |
| 2026-04-20 12:52 | 41.21834 | -71.27065 | 837 ft | 104 kts | 252° |
| 2026-04-20 12:52 | 41.21586 | -71.27968 | 838 ft | 104 kts | 253° |
| 2026-04-20 12:52 | 41.21340 | -71.28871 | 837 ft | 103 kts | 253° |
| 2026-04-20 12:52 | 41.21095 | -71.29772 | 837 ft | 103 kts | 252° |
| 2026-04-20 12:53 | 41.20851 | -71.30674 | 839 ft | 103 kts | 252° |
| 2026-04-20 12:53 | 41.20608 | -71.31576 | 841 ft | 103 kts | 252° |
| 2026-04-20 12:53 | 41.20367 | -71.32469 | 841 ft | 104 kts | 252° |
| 2026-04-20 12:53 | 41.20123 | -71.33374 | 843 ft | 103 kts | 252° |
| 2026-04-20 12:54 | 41.19879 | -71.34278 | 846 ft | 103 kts | 252° |
| 2026-04-20 12:54 | 41.19636 | -71.35178 | 847 ft | 103 kts | 252° |
| 2026-04-20 12:54 | 41.19396 | -71.36063 | 852 ft | 103 kts | 252° |
| 2026-04-20 12:54 | 41.19152 | -71.36965 | 853 ft | 103 kts | 252° |
| 2026-04-20 12:55 | 41.18912 | -71.37856 | 852 ft | 103 kts | 252° |
| 2026-04-20 12:55 | 41.18667 | -71.38760 | 851 ft | 103 kts | 253° |
| 2026-04-20 12:55 | 41.18427 | -71.39649 | 851 ft | 103 kts | 252° |
| 2026-04-20 12:55 | 41.18183 | -71.40552 | 855 ft | 103 kts | 252° |
| 2026-04-20 12:56 | 41.17939 | -71.41453 | 858 ft | 103 kts | 252° |
| 2026-04-20 12:56 | 41.17696 | -71.42351 | 856 ft | 103 kts | 252° |
| 2026-04-20 12:56 | 41.17456 | -71.43237 | 858 ft | 103 kts | 252° |
| 2026-04-20 12:56 | 41.17213 | -71.44132 | 857 ft | 102 kts | 252° |
| 2026-04-20 12:57 | 41.16970 | -71.45026 | 858 ft | 102 kts | 252° |
| 2026-04-20 12:57 | 41.16732 | -71.45908 | 858 ft | 102 kts | 252° |
| 2026-04-20 12:57 | 41.16489 | -71.46804 | 857 ft | 103 kts | 252° |
| 2026-04-20 12:57 | 41.16246 | -71.47701 | 858 ft | 103 kts | 252° |
| 2026-04-20 12:58 | 41.16006 | -71.48586 | 858 ft | 103 kts | 252° |
| 2026-04-20 12:58 | 41.15763 | -71.49480 | 859 ft | 102 kts | 252° |
| 2026-04-20 12:58 | 41.15519 | -71.50377 | 861 ft | 103 kts | 252° |
| 2026-04-20 12:58 | 41.15279 | -71.51260 | 860 ft | 103 kts | 252° |
| 2026-04-20 12:59 | 41.15035 | -71.52156 | 859 ft | 103 kts | 252° |
| 2026-04-20 12:59 | 41.14791 | -71.53052 | 861 ft | 103 kts | 252° |
| 2026-04-20 12:59 | 41.14549 | -71.53947 | 861 ft | 103 kts | 252° |
| 2026-04-20 12:59 | 41.14307 | -71.54831 | 862 ft | 103 kts | 252° |
| 2026-04-20 13:00 | 41.14061 | -71.55732 | 861 ft | 103 kts | 252° |
| 2026-04-20 13:00 | 41.13818 | -71.56628 | 860 ft | 103 kts | 252° |
| 2026-04-20 13:00 | 41.13573 | -71.57524 | 859 ft | 103 kts | 252° |
| 2026-04-20 13:00 | 41.13329 | -71.58419 | 861 ft | 103 kts | 252° |
| 2026-04-20 13:01 | 41.13087 | -71.59306 | 862 ft | 103 kts | 252° |
| 2026-04-20 13:01 | 41.12841 | -71.60207 | 863 ft | 103 kts | 252° |
| 2026-04-20 13:01 | 41.12597 | -71.61105 | 861 ft | 103 kts | 252° |
| 2026-04-20 13:01 | 41.12355 | -71.61991 | 861 ft | 103 kts | 252° |
| 2026-04-20 13:02 | 41.12110 | -71.62885 | 863 ft | 103 kts | 252° |
| 2026-04-20 13:02 | 41.11865 | -71.63784 | 862 ft | 103 kts | 252° |
| 2026-04-20 13:02 | 41.11623 | -71.64671 | 862 ft | 103 kts | 252° |
| 2026-04-20 13:02 | 41.11377 | -71.65573 | 861 ft | 103 kts | 251° |
| 2026-04-20 13:03 | 41.11131 | -71.66471 | 863 ft | 103 kts | 251° |
| 2026-04-20 13:03 | 41.10886 | -71.67367 | 862 ft | 103 kts | 251° |
| 2026-04-20 13:03 | 41.10641 | -71.68262 | 865 ft | 103 kts | 251° |
| 2026-04-20 13:03 | 41.10396 | -71.69157 | 864 ft | 103 kts | 251° |
| 2026-04-20 13:04 | 41.10150 | -71.70055 | 862 ft | 103 kts | 251° |
| 2026-04-20 13:04 | 41.09907 | -71.70944 | 865 ft | 103 kts | 251° |
| 2026-04-20 13:04 | 41.09660 | -71.71846 | 864 ft | 104 kts | 251° |
| 2026-04-20 13:04 | 41.09413 | -71.72746 | 866 ft | 104 kts | 251° |
| 2026-04-20 13:05 | 41.09165 | -71.73650 | 863 ft | 104 kts | 251° |
| 2026-04-20 13:05 | 41.08919 | -71.74545 | 867 ft | 104 kts | 251° |
| 2026-04-20 13:05 | 41.08671 | -71.75450 | 867 ft | 104 kts | 251° |
| 2026-04-20 13:05 | 41.08423 | -71.76354 | 865 ft | 104 kts | 251° |
| 2026-04-20 13:06 | 41.08171 | -71.77275 | 863 ft | 104 kts | 251° |
| 2026-04-20 13:06 | 41.07925 | -71.78168 | 864 ft | 104 kts | 251° |
| 2026-04-20 13:06 | 41.07675 | -71.79078 | 862 ft | 104 kts | 251° |
| 2026-04-20 13:06 | 41.07423 | -71.79991 | 865 ft | 104 kts | 251° |
| 2026-04-20 13:07 | 41.07175 | -71.80895 | 863 ft | 104 kts | 250° |
| 2026-04-20 13:07 | 41.06926 | -71.81797 | 865 ft | 104 kts | 251° |
| 2026-04-20 13:07 | 41.06675 | -71.82709 | 867 ft | 105 kts | 251° |
| 2026-04-20 13:07 | 41.06426 | -71.83614 | 867 ft | 105 kts | 250° |
| 2026-04-20 13:08 | 41.06173 | -71.84533 | 867 ft | 105 kts | 251° |
| 2026-04-20 13:08 | 41.05922 | -71.85441 | 868 ft | 105 kts | 250° |
| 2026-04-20 13:08 | 41.05672 | -71.86347 | 866 ft | 105 kts | 251° |
| 2026-04-20 13:08 | 41.05421 | -71.87260 | 868 ft | 105 kts | 251° |
| 2026-04-20 13:09 | 41.05168 | -71.88177 | 867 ft | 105 kts | 250° |
| 2026-04-20 13:09 | 41.04919 | -71.89079 | 865 ft | 105 kts | 250° |
| 2026-04-20 13:09 | 41.04666 | -71.89993 | 867 ft | 105 kts | 250° |
| 2026-04-20 13:09 | 41.04414 | -71.90904 | 869 ft | 105 kts | 250° |
| 2026-04-20 13:10 | 41.04165 | -71.91809 | 868 ft | 105 kts | 250° |
| 2026-04-20 13:10 | 41.03912 | -71.92723 | 865 ft | 105 kts | 250° |
| 2026-04-20 13:10 | 41.03662 | -71.93630 | 869 ft | 105 kts | 250° |
| 2026-04-20 13:10 | 41.03411 | -71.94537 | 867 ft | 105 kts | 250° |
| 2026-04-20 13:11 | 41.03157 | -71.95450 | 865 ft | 105 kts | 250° |
| 2026-04-20 13:11 | 41.02905 | -71.96358 | 862 ft | 105 kts | 250° |
| 2026-04-20 13:11 | 41.02655 | -71.97263 | 865 ft | 104 kts | 251° |
| 2026-04-20 13:11 | 41.02408 | -71.98161 | 864 ft | 104 kts | 250° |
| 2026-04-20 13:12 | 41.02156 | -71.99068 | 863 ft | 104 kts | 250° |
| 2026-04-20 13:12 | 41.01907 | -71.99967 | 867 ft | 104 kts | 250° |
| 2026-04-20 13:12 | 41.01659 | -72.00864 | 871 ft | 104 kts | 250° |
| 2026-04-20 13:12 | 41.01409 | -72.01765 | 868 ft | 105 kts | 250° |
| 2026-04-20 13:13 | 41.01156 | -72.02677 | 867 ft | 105 kts | 250° |
| 2026-04-20 13:13 | 41.00902 | -72.03590 | 867 ft | 105 kts | 250° |
| 2026-04-20 13:13 | 41.00649 | -72.04504 | 864 ft | 105 kts | 250° |
| 2026-04-20 13:13 | 41.00398 | -72.05406 | 866 ft | 105 kts | 250° |
| 2026-04-20 13:14 | 41.00143 | -72.06323 | 867 ft | 105 kts | 250° |
| 2026-04-20 13:14 | 40.99890 | -72.07235 | 868 ft | 105 kts | 250° |
| 2026-04-20 13:14 | 40.99638 | -72.08140 | 868 ft | 105 kts | 250° |
| 2026-04-20 13:14 | 40.99386 | -72.09049 | 867 ft | 105 kts | 250° |
| 2026-04-20 13:15 | 40.99134 | -72.09952 | 867 ft | 105 kts | 250° |
| 2026-04-20 13:15 | 40.98878 | -72.10870 | 863 ft | 105 kts | 250° |
| 2026-04-20 13:15 | 40.98629 | -72.11768 | 864 ft | 105 kts | 251° |
| 2026-04-20 13:15 | 40.98375 | -72.12680 | 868 ft | 104 kts | 250° |
| 2026-04-20 13:16 | 40.98124 | -72.13582 | 866 ft | 105 kts | 250° |
| 2026-04-20 13:16 | 40.97871 | -72.14488 | 868 ft | 105 kts | 250° |
| 2026-04-20 13:16 | 40.97619 | -72.15392 | 865 ft | 105 kts | 250° |
| 2026-04-20 13:16 | 40.97365 | -72.16299 | 867 ft | 105 kts | 250° |
| 2026-04-20 13:17 | 40.97112 | -72.17209 | 867 ft | 105 kts | 250° |
| 2026-04-20 13:17 | 40.96861 | -72.18108 | 868 ft | 105 kts | 250° |
| 2026-04-20 13:17 | 40.96607 | -72.19021 | 864 ft | 105 kts | 250° |
| 2026-04-20 13:17 | 40.96351 | -72.19934 | 864 ft | 105 kts | 250° |
| 2026-04-20 13:18 | 40.96098 | -72.20841 | 866 ft | 105 kts | 250° |
| 2026-04-20 13:18 | 40.95845 | -72.21744 | 867 ft | 105 kts | 250° |
| 2026-04-20 13:18 | 40.95592 | -72.22649 | 867 ft | 105 kts | 250° |
| 2026-04-20 13:18 | 40.95338 | -72.23558 | 866 ft | 105 kts | 250° |
| 2026-04-20 13:19 | 40.95082 | -72.24475 | 868 ft | 105 kts | 250° |
| 2026-04-20 13:19 | 40.94828 | -72.25379 | 868 ft | 105 kts | 250° |
| 2026-04-20 13:19 | 40.94574 | -72.26284 | 867 ft | 105 kts | 250° |
| 2026-04-20 13:19 | 40.94317 | -72.27206 | 868 ft | 105 kts | 250° |
| 2026-04-20 13:20 | 40.94061 | -72.28117 | 868 ft | 106 kts | 250° |
| 2026-04-20 13:20 | 40.93806 | -72.29026 | 866 ft | 106 kts | 250° |
| 2026-04-20 13:20 | 40.93550 | -72.29936 | 867 ft | 106 kts | 250° |
| 2026-04-20 13:20 | 40.93294 | -72.30849 | 865 ft | 106 kts | 250° |
| 2026-04-20 13:21 | 40.93040 | -72.31758 | 866 ft | 106 kts | 250° |
| 2026-04-20 13:21 | 40.92782 | -72.32675 | 865 ft | 106 kts | 250° |
| 2026-04-20 13:21 | 40.92526 | -72.33588 | 867 ft | 106 kts | 250° |
| 2026-04-20 13:21 | 40.92269 | -72.34503 | 866 ft | 106 kts | 250° |
| 2026-04-20 13:22 | 40.92009 | -72.35429 | 863 ft | 107 kts | 250° |
| 2026-04-20 13:22 | 40.91752 | -72.36347 | 860 ft | 107 kts | 250° |
| 2026-04-20 13:22 | 40.91491 | -72.37270 | 859 ft | 107 kts | 250° |
| 2026-04-20 13:22 | 40.91232 | -72.38192 | 857 ft | 107 kts | 250° |
| 2026-04-20 13:23 | 40.90971 | -72.39118 | 859 ft | 107 kts | 250° |
| 2026-04-20 13:23 | 40.90711 | -72.40041 | 858 ft | 107 kts | 249° |
| 2026-04-20 13:23 | 40.90453 | -72.40960 | 859 ft | 107 kts | 250° |
| 2026-04-20 13:23 | 40.90192 | -72.41883 | 860 ft | 107 kts | 250° |
| 2026-04-20 13:24 | 40.89931 | -72.42809 | 862 ft | 107 kts | 250° |
| 2026-04-20 13:24 | 40.89671 | -72.43733 | 862 ft | 107 kts | 250° |
| 2026-04-20 13:24 | 40.89412 | -72.44649 | 861 ft | 107 kts | 250° |
| 2026-04-20 13:24 | 40.89151 | -72.45574 | 859 ft | 107 kts | 250° |
| 2026-04-20 13:25 | 40.88886 | -72.46511 | 855 ft | 108 kts | 250° |
| 2026-04-20 13:25 | 40.88627 | -72.47430 | 854 ft | 108 kts | 250° |
| 2026-04-20 13:25 | 40.88363 | -72.48364 | 853 ft | 108 kts | 250° |
| 2026-04-20 13:25 | 40.88100 | -72.49294 | 852 ft | 108 kts | 250° |
| 2026-04-20 13:26 | 40.87842 | -72.50210 | 851 ft | 108 kts | 250° |
| 2026-04-20 13:26 | 40.87577 | -72.51147 | 851 ft | 107 kts | 250° |
| 2026-04-20 13:26 | 40.87315 | -72.52071 | 853 ft | 107 kts | 250° |
| 2026-04-20 13:26 | 40.87056 | -72.52988 | 864 ft | 107 kts | 250° |
| 2026-04-20 13:27 | 40.86798 | -72.53902 | 892 ft | 105 kts | 250° |
| 2026-04-20 13:27 | 40.86543 | -72.54803 | 920 ft | 103 kts | 250° |
| 2026-04-20 13:27 | 40.86297 | -72.55675 | 962 ft | 100 kts | 250° |
| 2026-04-20 13:27 | 40.86057 | -72.56526 | 994 ft | 99 kts | 250° |
| 2026-04-20 13:28 | 40.85817 | -72.57377 | 1019 ft | 99 kts | 250° |
| 2026-04-20 13:28 | 40.85576 | -72.58234 | 1042 ft | 99 kts | 250° |
| 2026-04-20 13:28 | 40.85336 | -72.59080 | 1065 ft | 98 kts | 250° |
| 2026-04-20 13:28 | 40.85097 | -72.59927 | 1089 ft | 98 kts | 250° |
| 2026-04-20 13:29 | 40.84856 | -72.60777 | 1113 ft | 98 kts | 250° |
| 2026-04-20 13:29 | 40.84615 | -72.61624 | 1138 ft | 98 kts | 250° |
| 2026-04-20 13:29 | 40.84376 | -72.62466 | 1160 ft | 98 kts | 250° |
| 2026-04-20 13:29 | 40.84139 | -72.63303 | 1181 ft | 98 kts | 250° |
| 2026-04-20 13:30 | 40.83899 | -72.64149 | 1202 ft | 98 kts | 250° |
| 2026-04-20 13:30 | 40.83659 | -72.64990 | 1225 ft | 98 kts | 250° |
| 2026-04-20 13:30 | 40.83420 | -72.65830 | 1247 ft | 98 kts | 250° |
| 2026-04-20 13:30 | 40.83179 | -72.66676 | 1274 ft | 97 kts | 250° |
| 2026-04-20 13:31 | 40.82942 | -72.67509 | 1296 ft | 97 kts | 250° |
| 2026-04-20 13:31 | 40.82704 | -72.68346 | 1321 ft | 97 kts | 250° |
| 2026-04-20 13:31 | 40.82465 | -72.69187 | 1344 ft | 97 kts | 250° |
| 2026-04-20 13:31 | 40.82227 | -72.70019 | 1365 ft | 97 kts | 250° |
| 2026-04-20 13:32 | 40.81991 | -72.70850 | 1384 ft | 97 kts | 250° |
| 2026-04-20 13:32 | 40.81750 | -72.71693 | 1406 ft | 97 kts | 250° |
| 2026-04-20 13:32 | 40.81510 | -72.72536 | 1429 ft | 97 kts | 250° |
| 2026-04-20 13:32 | 40.81273 | -72.73368 | 1450 ft | 97 kts | 250° |
| 2026-04-20 13:33 | 40.81033 | -72.74206 | 1471 ft | 97 kts | 250° |
| 2026-04-20 13:33 | 40.80794 | -72.75043 | 1495 ft | 97 kts | 250° |